createdAt,value
2019-05-17T00:00:04.403Z,102.67
2019-05-17T00:00:09.404Z,102.67
2019-05-17T00:00:14.405Z,88.86
2019-05-17T00:00:19.406Z,88.86
2019-05-17T00:00:24.406Z,89.13
2019-05-17T00:00:29.408Z,89.13
2019-05-17T00:00:34.425Z,89.31
2019-05-17T00:00:39.412Z,89.31
2019-05-17T00:00:44.411Z,102.47
2019-05-17T00:00:49.412Z,102.47
2019-05-17T00:00:54.413Z,91.84
2019-05-17T00:00:59.414Z,91.84
2019-05-17T00:01:04.414Z,91.48
2019-05-17T00:01:09.418Z,91.48
2019-05-17T00:01:14.416Z,91.21
2019-05-17T00:01:19.503Z,91.21
2019-05-17T00:01:24.419Z,84.04
2019-05-17T00:01:29.422Z,84.04
2019-05-17T00:01:34.427Z,85.00
2019-05-17T00:01:39.421Z,85.00
2019-05-17T00:01:44.421Z,85.76
2019-05-17T00:01:49.423Z,85.76
2019-05-17T00:01:54.424Z,80.17
2019-05-17T00:01:59.576Z,80.17
2019-05-17T00:02:04.426Z,87.22
2019-05-17T00:02:09.428Z,87.22
2019-05-17T00:02:14.428Z,87.62
2019-05-17T00:02:19.442Z,87.62
2019-05-17T00:02:24.431Z,82.12
2019-05-17T00:02:29.431Z,82.12
2019-05-17T00:02:34.877Z,83.19
2019-05-17T00:02:39.434Z,83.19
2019-05-17T00:02:44.434Z,74.80
2019-05-17T00:02:49.560Z,74.80
2019-05-17T00:02:54.438Z,76.91
2019-05-17T00:02:59.677Z,76.91
2019-05-17T00:03:04.438Z,72.73
2019-05-17T00:03:09.438Z,72.73
2019-05-17T00:03:14.441Z,75.01
2019-05-17T00:03:19.442Z,75.01
2019-05-17T00:03:24.442Z,76.93
2019-05-17T00:03:29.442Z,76.93
2019-05-17T00:03:34.445Z,78.57
2019-05-17T00:03:39.443Z,78.57
2019-05-17T00:03:44.445Z,74.59
2019-05-17T00:03:49.447Z,74.59
2019-05-17T00:03:54.456Z,76.46
2019-05-17T00:03:59.448Z,76.46
2019-05-17T00:04:04.449Z,72.81
2019-05-17T00:04:09.453Z,72.81
2019-05-17T00:04:14.562Z,74.84
2019-05-17T00:04:19.451Z,74.84
2019-05-17T00:04:24.453Z,76.61
2019-05-17T00:04:29.454Z,76.61
2019-05-17T00:04:34.454Z,78.15
2019-05-17T00:04:39.460Z,78.15
2019-05-17T00:04:44.456Z,79.50
2019-05-17T00:04:49.457Z,79.50
2019-05-17T00:04:54.948Z,75.77
2019-05-17T00:04:59.461Z,75.77
2019-05-17T00:05:04.624Z,77.37
2019-05-17T00:05:09.462Z,77.37
2019-05-17T00:05:14.713Z,78.78
2019-05-17T00:05:19.647Z,78.78
2019-05-17T00:05:24.465Z,80.02
2019-05-17T00:05:29.466Z,80.02
2019-05-17T00:05:34.467Z,76.33
2019-05-17T00:05:39.467Z,76.33
2019-05-17T00:05:44.469Z,72.98
2019-05-17T00:05:49.470Z,72.98
2019-05-17T00:05:54.471Z,69.97
2019-05-17T00:05:59.473Z,69.97
2019-05-17T00:06:04.473Z,72.16
2019-05-17T00:06:09.474Z,72.16
2019-05-17T00:06:14.629Z,74.10
2019-05-17T00:06:19.476Z,74.10
2019-05-17T00:06:24.477Z,75.83
2019-05-17T00:06:29.477Z,75.83
2019-05-17T00:06:34.478Z,77.36
2019-05-17T00:06:39.479Z,77.36
2019-05-17T00:06:44.480Z,84.30
2019-05-17T00:06:49.482Z,84.30
2019-05-17T00:06:54.483Z,79.80
2019-05-17T00:06:59.485Z,79.80
2019-05-17T00:07:04.484Z,75.76
2019-05-17T00:07:09.485Z,75.76
2019-05-17T00:07:14.488Z,72.17
2019-05-17T00:07:19.597Z,72.17
2019-05-17T00:07:24.488Z,69.00
2019-05-17T00:07:29.490Z,69.00
2019-05-17T00:07:34.490Z,66.21
2019-05-17T00:07:39.491Z,66.21
2019-05-17T00:07:44.913Z,63.76
2019-05-17T00:07:49.493Z,63.76
2019-05-17T00:07:54.684Z,66.73
2019-05-17T00:07:59.499Z,66.73
2019-05-17T00:08:04.500Z,69.36
2019-05-17T00:08:09.498Z,69.36
2019-05-17T00:08:14.498Z,76.59
2019-05-17T00:08:19.499Z,76.59
2019-05-17T00:08:24.500Z,72.62
2019-05-17T00:08:31.171Z,72.62
2019-05-17T00:08:34.510Z,74.82
2019-05-17T00:08:39.575Z,74.82
2019-05-17T00:08:44.504Z,76.71
2019-05-17T00:08:49.504Z,76.71
2019-05-17T00:08:54.505Z,78.32
2019-05-17T00:08:59.506Z,78.32
2019-05-17T00:09:04.506Z,79.72
2019-05-17T00:09:09.508Z,79.72
2019-05-17T00:09:14.511Z,80.93
2019-05-17T00:09:19.510Z,80.93
2019-05-17T00:09:24.513Z,81.98
2019-05-17T00:09:29.512Z,81.98
2019-05-17T00:09:34.513Z,82.89
2019-05-17T00:09:39.516Z,82.89
2019-05-17T00:09:44.515Z,83.69
2019-05-17T00:09:49.523Z,83.69
2019-05-17T00:09:54.517Z,79.61
2019-05-17T00:09:59.518Z,79.61
2019-05-17T00:10:04.519Z,80.77
2019-05-17T00:10:09.520Z,80.77
2019-05-17T00:10:14.521Z,87.95
2019-05-17T00:10:19.522Z,87.95
2019-05-17T00:10:24.525Z,88.20
2019-05-17T00:10:29.526Z,88.20
2019-05-17T00:10:34.527Z,83.33
2019-05-17T00:10:39.535Z,83.33
2019-05-17T00:10:44.526Z,75.65
2019-05-17T00:10:49.528Z,75.65
2019-05-17T00:10:54.540Z,71.78
2019-05-17T00:10:59.530Z,71.78
2019-05-17T00:11:04.531Z,74.09
2019-05-17T00:11:09.533Z,74.09
2019-05-17T00:11:14.533Z,76.07
2019-05-17T00:11:19.808Z,76.07
2019-05-17T00:11:24.536Z,77.76
2019-05-17T00:11:29.535Z,77.76
2019-05-17T00:11:34.553Z,79.23
2019-05-17T00:11:39.540Z,79.23
2019-05-17T00:11:44.539Z,75.35
2019-05-17T00:11:49.540Z,75.35
2019-05-17T00:11:54.543Z,71.88
2019-05-17T00:11:59.542Z,71.88
2019-05-17T00:12:04.543Z,68.81
2019-05-17T00:12:09.544Z,68.81
2019-05-17T00:12:14.559Z,75.34
2019-05-17T00:12:19.545Z,75.34
2019-05-17T00:12:24.546Z,71.77
2019-05-17T00:12:29.548Z,71.77
2019-05-17T00:12:34.548Z,73.94
2019-05-17T00:12:39.552Z,73.94
2019-05-17T00:12:44.550Z,70.61
2019-05-17T00:12:49.552Z,70.61
2019-05-17T00:12:54.555Z,67.66
2019-05-17T00:12:59.553Z,67.66
2019-05-17T00:13:04.557Z,70.23
2019-05-17T00:13:09.556Z,70.23
2019-05-17T00:13:14.557Z,72.48
2019-05-17T00:13:19.557Z,72.48
2019-05-17T00:13:24.559Z,69.42
2019-05-17T00:13:29.562Z,69.42
2019-05-17T00:13:34.560Z,71.73
2019-05-17T00:13:39.561Z,71.73
2019-05-17T00:13:44.565Z,73.77
2019-05-17T00:13:49.607Z,73.77
2019-05-17T00:13:54.577Z,75.57
2019-05-17T00:13:59.564Z,75.57
2019-05-17T00:14:04.589Z,77.17
2019-05-17T00:14:09.568Z,77.17
2019-05-17T00:14:14.567Z,78.57
2019-05-17T00:14:19.596Z,78.57
2019-05-17T00:14:24.579Z,79.82
2019-05-17T00:14:29.578Z,79.82
2019-05-17T00:14:34.586Z,80.92
2019-05-17T00:14:39.581Z,80.92
2019-05-17T00:14:44.583Z,77.23
2019-05-17T00:14:49.770Z,77.23
2019-05-17T00:14:54.584Z,78.61
2019-05-17T00:14:59.586Z,78.61
2019-05-17T00:15:04.586Z,79.83
2019-05-17T00:15:09.586Z,79.83
2019-05-17T00:15:14.592Z,80.92
2019-05-17T00:15:19.589Z,80.92
2019-05-17T00:15:24.858Z,81.88
2019-05-17T00:15:29.591Z,81.88
2019-05-17T00:15:34.593Z,82.74
2019-05-17T00:15:39.595Z,82.74
2019-05-17T00:15:44.594Z,83.51
2019-05-17T00:15:49.595Z,83.51
2019-05-17T00:15:54.596Z,79.68
2019-05-17T00:15:59.599Z,79.68
2019-05-17T00:16:04.599Z,76.15
2019-05-17T00:16:09.599Z,76.15
2019-05-17T00:16:14.600Z,77.62
2019-05-17T00:16:19.606Z,77.62
2019-05-17T00:16:24.603Z,78.94
2019-05-17T00:16:29.603Z,78.94
2019-05-17T00:16:34.603Z,75.48
2019-05-17T00:16:39.605Z,75.48
2019-05-17T00:16:44.605Z,72.32
2019-05-17T00:16:49.610Z,72.32
2019-05-17T00:16:54.615Z,69.45
2019-05-17T00:16:59.744Z,69.45
2019-05-17T00:17:04.609Z,71.64
2019-05-17T00:17:09.615Z,71.64
2019-05-17T00:17:14.611Z,73.59
2019-05-17T00:17:19.612Z,73.59
2019-05-17T00:17:24.614Z,75.34
2019-05-17T00:17:29.617Z,75.34
2019-05-17T00:17:34.616Z,76.89
2019-05-17T00:17:39.616Z,76.89
2019-05-17T00:17:44.618Z,82.33
2019-05-17T00:17:49.619Z,82.33
2019-05-17T00:17:54.753Z,83.18
2019-05-17T00:17:59.620Z,83.18
2019-05-17T00:18:04.626Z,83.92
2019-05-17T00:18:09.623Z,83.92
2019-05-17T00:18:14.623Z,84.58
2019-05-17T00:18:19.624Z,84.58
2019-05-17T00:18:24.993Z,80.56
2019-05-17T00:18:29.640Z,80.56
2019-05-17T00:18:34.627Z,81.59
2019-05-17T00:18:39.628Z,81.59
2019-05-17T00:18:44.628Z,82.49
2019-05-17T00:18:49.630Z,82.49
2019-05-17T00:18:54.652Z,83.30
2019-05-17T00:18:59.632Z,83.30
2019-05-17T00:19:04.637Z,79.43
2019-05-17T00:19:09.635Z,79.43
2019-05-17T00:19:14.638Z,75.87
2019-05-17T00:19:19.640Z,75.87
2019-05-17T00:19:24.645Z,77.40
2019-05-17T00:19:29.640Z,77.40
2019-05-17T00:19:34.641Z,78.75
2019-05-17T00:19:39.645Z,78.75
2019-05-17T00:19:46.115Z,72.17
2019-05-17T00:19:49.641Z,72.17
2019-05-17T00:19:54.642Z,74.20
2019-05-17T00:19:59.643Z,74.20
2019-05-17T00:20:04.644Z,70.98
2019-05-17T00:20:09.645Z,70.98
2019-05-17T00:20:14.692Z,73.11
2019-05-17T00:20:19.647Z,73.11
2019-05-17T00:20:24.653Z,74.99
2019-05-17T00:20:29.649Z,74.99
2019-05-17T00:20:34.651Z,71.75
2019-05-17T00:20:39.654Z,71.75
2019-05-17T00:20:44.653Z,68.84
2019-05-17T00:20:49.654Z,68.84
2019-05-17T00:20:54.660Z,71.16
2019-05-17T00:20:59.655Z,71.16
2019-05-17T00:21:04.661Z,68.33
2019-05-17T00:21:09.657Z,68.33
2019-05-17T00:21:14.659Z,65.80
2019-05-17T00:21:19.661Z,65.80
2019-05-17T00:21:24.659Z,63.54
2019-05-17T00:21:29.661Z,63.54
2019-05-17T00:21:34.665Z,61.53
2019-05-17T00:21:39.666Z,61.53
2019-05-17T00:21:44.664Z,59.75
2019-05-17T00:21:49.666Z,59.75
2019-05-17T00:21:54.667Z,58.16
2019-05-17T00:21:59.668Z,58.16
2019-05-17T00:22:04.668Z,61.47
2019-05-17T00:22:09.668Z,61.47
2019-05-17T00:22:14.670Z,59.70
2019-05-17T00:22:19.672Z,59.70
2019-05-17T00:22:24.671Z,54.07
2019-05-17T00:22:29.678Z,54.07
2019-05-17T00:22:34.674Z,48.64
2019-05-17T00:22:39.674Z,48.64
2019-05-17T00:22:44.681Z,48.22
2019-05-17T00:22:49.681Z,48.22
2019-05-17T00:22:54.688Z,52.67
2019-05-17T00:22:59.678Z,52.67
2019-05-17T00:23:04.680Z,51.79
2019-05-17T00:23:09.681Z,51.79
2019-05-17T00:23:14.682Z,51.03
2019-05-17T00:23:19.683Z,51.03
2019-05-17T00:23:24.695Z,55.14
2019-05-17T00:23:29.734Z,55.14
2019-05-17T00:23:34.685Z,58.90
2019-05-17T00:23:39.688Z,58.90
2019-05-17T00:23:44.691Z,62.29
2019-05-17T00:23:49.689Z,62.29
2019-05-17T00:23:54.689Z,60.36
2019-05-17T00:23:59.690Z,60.36
2019-05-17T00:24:04.690Z,58.65
2019-05-17T00:24:09.692Z,58.65
2019-05-17T00:24:14.694Z,57.15
2019-05-17T00:24:19.694Z,57.15
2019-05-17T00:24:24.696Z,60.62
2019-05-17T00:24:29.696Z,60.62
2019-05-17T00:24:34.697Z,58.91
2019-05-17T00:24:39.699Z,58.91
2019-05-17T00:24:44.700Z,62.21
2019-05-17T00:24:49.700Z,62.21
2019-05-17T00:24:54.700Z,65.18
2019-05-17T00:24:59.782Z,65.18
2019-05-17T00:25:04.703Z,67.85
2019-05-17T00:25:09.703Z,67.85
2019-05-17T00:25:14.705Z,70.24
2019-05-17T00:25:19.706Z,70.24
2019-05-17T00:25:24.708Z,67.54
2019-05-17T00:25:29.737Z,67.54
2019-05-17T00:25:34.708Z,65.12
2019-05-17T00:25:39.709Z,65.12
2019-05-17T00:25:44.711Z,62.96
2019-05-17T00:25:49.712Z,62.96
2019-05-17T00:25:54.713Z,65.82
2019-05-17T00:25:59.712Z,65.82
2019-05-17T00:26:04.714Z,68.40
2019-05-17T00:26:09.715Z,68.40
2019-05-17T00:26:14.721Z,70.71
2019-05-17T00:26:19.717Z,70.71
2019-05-17T00:26:24.717Z,72.77
2019-05-17T00:26:29.719Z,72.77
2019-05-17T00:26:34.720Z,74.61
2019-05-17T00:26:39.720Z,74.61
2019-05-17T00:26:44.722Z,71.52
2019-05-17T00:26:49.725Z,71.52
2019-05-17T00:26:54.724Z,68.73
2019-05-17T00:26:59.730Z,68.73
2019-05-17T00:27:04.726Z,70.99
2019-05-17T00:27:09.727Z,70.99
2019-05-17T00:27:14.728Z,73.02
2019-05-17T00:27:19.730Z,73.02
2019-05-17T00:27:24.731Z,74.83
2019-05-17T00:27:29.734Z,74.83
2019-05-17T00:27:34.732Z,76.44
2019-05-17T00:27:39.734Z,76.44
2019-05-17T00:27:44.733Z,77.88
2019-05-17T00:27:49.735Z,77.88
2019-05-17T00:27:54.736Z,74.52
2019-05-17T00:27:59.736Z,74.52
2019-05-17T00:28:04.739Z,71.46
2019-05-17T00:28:09.739Z,71.46
2019-05-17T00:28:14.739Z,68.68
2019-05-17T00:28:19.742Z,68.68
2019-05-17T00:28:24.741Z,66.18
2019-05-17T00:28:29.742Z,66.18
2019-05-17T00:28:34.744Z,63.94
2019-05-17T00:28:39.744Z,63.94
2019-05-17T00:28:44.745Z,61.93
2019-05-17T00:28:49.746Z,61.93
2019-05-17T00:28:54.748Z,64.85
2019-05-17T00:28:59.748Z,64.85
2019-05-17T00:29:04.749Z,62.75
2019-05-17T00:29:09.750Z,62.75
2019-05-17T00:29:14.752Z,60.87
2019-05-17T00:29:19.758Z,60.87
2019-05-17T00:29:24.753Z,59.19
2019-05-17T00:29:29.757Z,59.19
2019-05-17T00:29:34.757Z,57.69
2019-05-17T00:29:39.756Z,57.69
2019-05-17T00:29:44.757Z,60.99
2019-05-17T00:29:49.760Z,60.99
2019-05-17T00:29:54.759Z,59.29
2019-05-17T00:29:59.760Z,59.29
2019-05-17T00:30:04.762Z,62.45
2019-05-17T00:30:09.762Z,62.45
2019-05-17T00:30:14.985Z,68.76
2019-05-17T00:30:19.764Z,68.76
2019-05-17T00:30:24.766Z,66.12
2019-05-17T00:30:29.771Z,66.12
2019-05-17T00:30:34.768Z,68.75
2019-05-17T00:30:39.768Z,68.75
2019-05-17T00:30:44.769Z,71.10
2019-05-17T00:30:49.769Z,71.10
2019-05-17T00:30:54.769Z,68.26
2019-05-17T00:30:59.771Z,68.26
2019-05-17T00:31:04.772Z,65.72
2019-05-17T00:31:10.440Z,65.72
2019-05-17T00:31:14.775Z,68.36
2019-05-17T00:31:19.776Z,68.36
2019-05-17T00:31:24.777Z,70.71
2019-05-17T00:31:29.777Z,70.71
2019-05-17T00:31:34.777Z,77.64
2019-05-17T00:31:39.778Z,77.64
2019-05-17T00:31:44.779Z,73.72
2019-05-17T00:31:49.781Z,73.72
2019-05-17T00:31:54.782Z,75.71
2019-05-17T00:31:59.784Z,75.71
2019-05-17T00:32:04.783Z,72.12
2019-05-17T00:32:09.785Z,72.12
2019-05-17T00:32:15.069Z,74.24
2019-05-17T00:32:19.787Z,74.24
2019-05-17T00:32:24.789Z,76.09
2019-05-17T00:32:29.789Z,76.09
2019-05-17T00:32:34.790Z,77.70
2019-05-17T00:32:39.792Z,77.70
2019-05-17T00:32:44.792Z,79.11
2019-05-17T00:32:49.793Z,79.11
2019-05-17T00:32:54.794Z,80.34
2019-05-17T00:32:59.795Z,80.34
2019-05-17T00:33:04.798Z,76.55
2019-05-17T00:33:09.797Z,76.55
2019-05-17T00:33:14.797Z,73.12
2019-05-17T00:33:19.799Z,73.12
2019-05-17T00:33:24.800Z,75.00
2019-05-17T00:33:29.800Z,75.00
2019-05-17T00:33:34.801Z,76.66
2019-05-17T00:33:39.802Z,76.66
2019-05-17T00:33:44.803Z,78.13
2019-05-17T00:33:49.812Z,78.13
2019-05-17T00:33:54.806Z,79.43
2019-05-17T00:33:59.806Z,79.43
2019-05-17T00:34:04.810Z,80.58
2019-05-17T00:34:09.809Z,80.58
2019-05-17T00:34:14.809Z,81.59
2019-05-17T00:34:19.810Z,81.59
2019-05-17T00:34:24.811Z,82.50
2019-05-17T00:34:29.812Z,82.50
2019-05-17T00:34:34.813Z,83.29
2019-05-17T00:34:39.814Z,83.29
2019-05-17T00:34:44.815Z,84.00
2019-05-17T00:34:49.817Z,84.00
2019-05-17T00:34:54.818Z,84.64
2019-05-17T00:35:00.286Z,84.64
2019-05-17T00:35:04.820Z,85.20
2019-05-17T00:35:09.820Z,85.20
2019-05-17T00:35:14.820Z,85.70
2019-05-17T00:35:19.823Z,85.70
2019-05-17T00:35:24.823Z,86.15
2019-05-17T00:35:29.823Z,86.15
2019-05-17T00:35:34.827Z,82.14
2019-05-17T00:35:39.826Z,82.14
2019-05-17T00:35:44.878Z,78.42
2019-05-17T00:35:49.878Z,78.42
2019-05-17T00:35:54.879Z,79.65
2019-05-17T00:35:59.880Z,79.65
2019-05-17T00:36:04.881Z,80.74
2019-05-17T00:36:10.064Z,80.74
2019-05-17T00:36:14.882Z,77.14
2019-05-17T00:36:19.884Z,77.14
2019-05-17T00:36:24.885Z,78.51
2019-05-17T00:36:29.897Z,78.51
2019-05-17T00:36:35.777Z,79.72
2019-05-17T00:36:39.888Z,79.72
2019-05-17T00:36:44.888Z,76.21
2019-05-17T00:36:49.893Z,76.21
2019-05-17T00:36:54.892Z,77.67
2019-05-17T00:36:59.890Z,77.67
2019-05-17T00:37:04.892Z,78.97
2019-05-17T00:37:09.893Z,78.97
2019-05-17T00:37:14.893Z,80.14
2019-05-17T00:37:19.897Z,80.14
2019-05-17T00:37:24.896Z,76.60
2019-05-17T00:37:29.896Z,76.60
2019-05-17T00:37:34.898Z,83.40
2019-05-17T00:37:39.944Z,83.40
2019-05-17T00:37:44.900Z,84.18
2019-05-17T00:37:49.902Z,84.18
2019-05-17T00:37:54.906Z,84.86
2019-05-17T00:37:59.903Z,84.86
2019-05-17T00:38:04.903Z,85.45
2019-05-17T00:38:09.910Z,85.45
2019-05-17T00:38:14.905Z,81.13
2019-05-17T00:38:19.908Z,81.13
2019-05-17T00:38:24.910Z,82.14
2019-05-17T00:38:29.908Z,82.14
2019-05-17T00:38:34.911Z,78.15
2019-05-17T00:38:39.913Z,78.15
2019-05-17T00:38:44.912Z,79.49
2019-05-17T00:38:49.992Z,79.49
2019-05-17T00:38:54.913Z,75.78
2019-05-17T00:38:59.914Z,75.78
2019-05-17T00:39:04.915Z,77.37
2019-05-17T00:39:09.917Z,77.37
2019-05-17T00:39:15.001Z,73.89
2019-05-17T00:39:19.944Z,73.89
2019-05-17T00:39:24.919Z,75.68
2019-05-17T00:39:29.921Z,75.68
2019-05-17T00:39:34.923Z,77.25
2019-05-17T00:39:39.922Z,77.25
2019-05-17T00:39:44.924Z,78.65
2019-05-17T00:39:49.925Z,78.65
2019-05-17T00:39:55.011Z,82.19
2019-05-17T00:39:59.927Z,82.19
2019-05-17T00:40:04.927Z,83.05
2019-05-17T00:40:09.932Z,83.05
2019-05-17T00:40:14.971Z,90.06
2019-05-17T00:40:19.932Z,90.06
2019-05-17T00:40:24.931Z,90.05
2019-05-17T00:40:29.932Z,90.05
2019-05-17T00:40:34.938Z,85.12
2019-05-17T00:40:39.935Z,85.12
2019-05-17T00:40:44.934Z,85.70
2019-05-17T00:40:49.970Z,85.70
2019-05-17T00:40:54.936Z,86.20
2019-05-17T00:40:59.938Z,86.20
2019-05-17T00:41:04.939Z,86.64
2019-05-17T00:41:09.940Z,86.64
2019-05-17T00:41:14.940Z,87.02
2019-05-17T00:41:19.942Z,87.02
2019-05-17T00:41:24.943Z,87.35
2019-05-17T00:41:29.943Z,87.35
2019-05-17T00:41:34.944Z,82.97
2019-05-17T00:41:39.945Z,82.97
2019-05-17T00:41:45.062Z,83.75
2019-05-17T00:41:49.947Z,83.75
2019-05-17T00:41:54.949Z,84.44
2019-05-17T00:41:59.949Z,84.44
2019-05-17T00:42:04.952Z,85.05
2019-05-17T00:42:09.953Z,85.05
2019-05-17T00:42:14.952Z,85.59
2019-05-17T00:42:19.953Z,85.59
2019-05-17T00:42:24.953Z,86.06
2019-05-17T00:42:29.954Z,86.06
2019-05-17T00:42:34.956Z,81.94
2019-05-17T00:42:39.957Z,81.94
2019-05-17T00:42:44.959Z,82.81
2019-05-17T00:42:49.959Z,82.81
2019-05-17T00:42:54.961Z,78.95
2019-05-17T00:42:59.963Z,78.95
2019-05-17T00:43:04.962Z,84.36
2019-05-17T00:43:09.964Z,84.36
2019-05-17T00:43:14.964Z,85.00
2019-05-17T00:43:19.965Z,85.00
2019-05-17T00:43:24.966Z,85.55
2019-05-17T00:43:29.967Z,85.55
2019-05-17T00:43:34.968Z,86.04
2019-05-17T00:43:39.969Z,86.04
2019-05-17T00:43:44.971Z,86.47
2019-05-17T00:43:49.971Z,86.47
2019-05-17T00:43:54.971Z,86.85
2019-05-17T00:43:59.973Z,86.85
2019-05-17T00:44:04.976Z,87.19
2019-05-17T00:44:09.975Z,87.19
2019-05-17T00:44:14.975Z,87.49
2019-05-17T00:44:19.977Z,87.49
2019-05-17T00:44:25.201Z,83.29
2019-05-17T00:44:30.100Z,83.29
2019-05-17T00:44:34.979Z,79.39
2019-05-17T00:44:39.980Z,79.39
2019-05-17T00:44:44.982Z,80.54
2019-05-17T00:44:49.982Z,80.54
2019-05-17T00:44:54.983Z,76.88
2019-05-17T00:44:59.994Z,76.88
2019-05-17T00:45:04.985Z,78.30
2019-05-17T00:45:09.988Z,78.30
2019-05-17T00:45:15.011Z,79.56
2019-05-17T00:45:19.988Z,79.56
2019-05-17T00:45:24.989Z,86.45
2019-05-17T00:45:29.990Z,86.45
2019-05-17T00:45:34.991Z,86.88
2019-05-17T00:45:39.991Z,86.88
2019-05-17T00:45:45.046Z,87.24
2019-05-17T00:45:49.995Z,87.24
2019-05-17T00:45:54.997Z,87.56
2019-05-17T00:45:59.996Z,87.56
2019-05-17T00:46:04.997Z,87.84
2019-05-17T00:46:10.001Z,87.84
2019-05-17T00:46:15.009Z,88.08
2019-05-17T00:46:20.001Z,88.08
2019-05-17T00:46:25.005Z,88.29
2019-05-17T00:46:30.939Z,88.29
2019-05-17T00:46:40.011Z,88.48
2019-05-17T00:46:45.008Z,84.08
2019-05-17T00:46:50.199Z,84.08
2019-05-17T00:46:55.191Z,91.20
2019-05-17T00:47:02.311Z,91.20
2019-05-17T00:47:05.190Z,91.05
2019-05-17T00:47:10.189Z,91.05
2019-05-17T00:47:15.189Z,90.93
2019-05-17T00:47:20.345Z,90.93
2019-05-17T00:47:25.191Z,90.82
2019-05-17T00:47:30.297Z,90.82
2019-05-17T00:47:35.193Z,85.94
2019-05-17T00:47:40.193Z,85.94
2019-05-17T00:47:45.242Z,81.45
2019-05-17T00:47:50.252Z,81.45
2019-05-17T00:47:55.196Z,82.45
2019-05-17T00:48:00.197Z,82.45
2019-05-17T00:48:05.379Z,83.32
2019-05-17T00:48:10.209Z,83.32
2019-05-17T00:48:15.200Z,79.19
2019-05-17T00:48:20.203Z,79.19
2019-05-17T00:48:25.204Z,75.44
2019-05-17T00:48:30.204Z,75.44
2019-05-17T00:48:35.205Z,72.06
2019-05-17T00:48:40.206Z,72.06
2019-05-17T00:48:45.208Z,74.09
2019-05-17T00:48:50.214Z,74.09
2019-05-17T00:48:55.211Z,75.88
2019-05-17T00:49:00.210Z,75.88
2019-05-17T00:49:05.210Z,77.45
2019-05-17T00:49:10.212Z,77.45
2019-05-17T00:49:15.212Z,73.98
2019-05-17T00:49:20.214Z,73.98
2019-05-17T00:49:25.215Z,70.84
2019-05-17T00:49:30.215Z,70.84
2019-05-17T00:49:35.217Z,72.95
2019-05-17T00:49:40.218Z,72.95
2019-05-17T00:49:45.220Z,69.94
2019-05-17T00:49:50.219Z,69.94
2019-05-17T00:49:55.220Z,67.24
2019-05-17T00:50:00.226Z,67.24
2019-05-17T00:50:05.222Z,69.71
2019-05-17T00:50:10.224Z,69.71
2019-05-17T00:50:15.224Z,71.91
2019-05-17T00:50:20.225Z,71.91
2019-05-17T00:50:25.234Z,69.04
2019-05-17T00:50:30.228Z,69.04
2019-05-17T00:50:35.228Z,66.46
2019-05-17T00:50:40.229Z,66.46
2019-05-17T00:50:45.235Z,68.98
2019-05-17T00:50:50.245Z,68.98
2019-05-17T00:50:55.233Z,66.42
2019-05-17T00:51:00.233Z,66.42
2019-05-17T00:51:05.236Z,64.12
2019-05-17T00:51:10.235Z,64.12
2019-05-17T00:51:15.236Z,66.87
2019-05-17T00:51:20.238Z,66.87
2019-05-17T00:51:25.238Z,69.33
2019-05-17T00:51:30.241Z,69.33
2019-05-17T00:51:35.240Z,71.54
2019-05-17T00:51:40.245Z,71.54
2019-05-17T00:51:45.246Z,73.51
2019-05-17T00:51:50.243Z,73.51
2019-05-17T00:51:55.244Z,70.53
2019-05-17T00:52:00.248Z,70.53
2019-05-17T00:52:05.245Z,72.60
2019-05-17T00:52:10.248Z,72.60
2019-05-17T00:52:15.248Z,69.71
2019-05-17T00:52:20.249Z,69.71
2019-05-17T00:52:25.249Z,67.10
2019-05-17T00:52:30.669Z,67.10
2019-05-17T00:52:35.252Z,64.76
2019-05-17T00:52:40.252Z,64.76
2019-05-17T00:52:45.253Z,62.66
2019-05-17T00:52:50.253Z,62.66
2019-05-17T00:52:55.254Z,69.12
2019-05-17T00:53:00.255Z,69.12
2019-05-17T00:53:05.257Z,71.66
2019-05-17T00:53:10.257Z,71.66
2019-05-17T00:53:15.259Z,76.33
2019-05-17T00:53:20.259Z,76.33
2019-05-17T00:53:25.260Z,77.98
2019-05-17T00:53:30.262Z,77.98
2019-05-17T00:53:35.268Z,74.19
2019-05-17T00:53:40.263Z,74.19
2019-05-17T00:53:45.265Z,70.82
2019-05-17T00:53:50.266Z,70.82
2019-05-17T00:53:55.267Z,67.84
2019-05-17T00:54:00.268Z,67.84
2019-05-17T00:54:05.270Z,65.22
2019-05-17T00:54:10.270Z,65.22
2019-05-17T00:54:15.272Z,62.91
2019-05-17T00:54:20.273Z,62.91
2019-05-17T00:54:25.273Z,65.94
2019-05-17T00:54:30.274Z,65.94
2019-05-17T00:54:35.275Z,63.58
2019-05-17T00:54:40.276Z,63.58
2019-05-17T00:54:45.278Z,61.50
2019-05-17T00:54:50.277Z,61.50
2019-05-17T00:54:55.278Z,64.61
2019-05-17T00:55:00.286Z,64.61
2019-05-17T00:55:05.280Z,67.40
2019-05-17T00:55:10.282Z,67.40
2019-05-17T00:55:15.283Z,69.88
2019-05-17T00:55:20.284Z,69.88
2019-05-17T00:55:25.285Z,76.03
2019-05-17T00:55:30.285Z,76.03
2019-05-17T00:55:35.288Z,77.65
2019-05-17T00:55:40.287Z,77.65
2019-05-17T00:55:45.289Z,74.04
2019-05-17T00:55:50.289Z,74.04
2019-05-17T00:55:55.290Z,75.86
2019-05-17T00:56:00.292Z,75.86
2019-05-17T00:56:05.293Z,77.45
2019-05-17T00:56:10.293Z,77.45
2019-05-17T00:56:15.295Z,73.94
2019-05-17T00:56:20.295Z,73.94
2019-05-17T00:56:25.311Z,75.73
2019-05-17T00:56:30.297Z,75.73
2019-05-17T00:56:35.297Z,72.42
2019-05-17T00:56:40.299Z,72.42
2019-05-17T00:56:45.300Z,69.45
2019-05-17T00:56:50.301Z,69.45
2019-05-17T00:56:55.302Z,76.44
2019-05-17T00:57:00.304Z,76.44
2019-05-17T00:57:05.306Z,78.14
2019-05-17T00:57:10.305Z,78.14
2019-05-17T00:57:15.309Z,79.60
2019-05-17T00:57:20.307Z,79.60
2019-05-17T00:57:25.311Z,75.59
2019-05-17T00:57:30.308Z,75.59
2019-05-17T00:57:35.309Z,72.02
2019-05-17T00:57:40.311Z,72.02
2019-05-17T00:57:45.312Z,74.15
2019-05-17T00:57:50.312Z,74.15
2019-05-17T00:57:55.602Z,76.00
2019-05-17T00:58:00.315Z,76.00
2019-05-17T00:58:05.314Z,82.02
2019-05-17T00:58:10.317Z,82.02
2019-05-17T00:58:15.318Z,82.97
2019-05-17T00:58:20.317Z,82.97
2019-05-17T00:58:25.318Z,78.73
2019-05-17T00:58:30.319Z,78.73
2019-05-17T00:58:35.321Z,80.06
2019-05-17T00:58:40.322Z,80.06
2019-05-17T00:58:45.323Z,81.20
2019-05-17T00:58:50.324Z,81.20
2019-05-17T00:58:55.326Z,82.21
2019-05-17T00:59:00.326Z,82.21
2019-05-17T00:59:05.327Z,83.08
2019-05-17T00:59:10.328Z,83.08
2019-05-17T00:59:15.330Z,83.85
2019-05-17T00:59:20.329Z,83.85
2019-05-17T00:59:25.332Z,84.53
2019-05-17T00:59:30.337Z,84.53
2019-05-17T00:59:35.336Z,80.45
2019-05-17T00:59:40.337Z,80.45
2019-05-17T00:59:45.339Z,81.50
2019-05-17T00:59:50.336Z,81.50
2019-05-17T00:59:55.339Z,82.43
2019-05-17T01:00:00.340Z,82.43
2019-05-17T01:00:05.339Z,78.57
2019-05-17T01:00:10.342Z,78.57
2019-05-17T01:00:15.342Z,79.82
2019-05-17T01:00:20.341Z,79.82
2019-05-17T01:00:25.384Z,80.92
2019-05-17T01:00:30.343Z,80.92
2019-05-17T01:00:35.471Z,81.90
2019-05-17T01:00:40.349Z,81.90
2019-05-17T01:00:45.347Z,78.14
2019-05-17T01:00:50.348Z,78.14
2019-05-17T01:00:55.348Z,79.41
2019-05-17T01:01:00.350Z,79.41
2019-05-17T01:01:05.350Z,75.87
2019-05-17T01:01:10.354Z,75.87
2019-05-17T01:01:15.352Z,72.63
2019-05-17T01:01:20.578Z,72.63
2019-05-17T01:01:25.354Z,79.53
2019-05-17T01:01:30.356Z,79.53
2019-05-17T01:01:35.358Z,75.47
2019-05-17T01:01:40.357Z,75.47
2019-05-17T01:01:45.359Z,77.23
2019-05-17T01:01:50.359Z,77.23
2019-05-17T01:01:55.360Z,78.75
2019-05-17T01:02:00.481Z,78.75
2019-05-17T01:02:05.514Z,80.07
2019-05-17T01:02:10.363Z,80.07
2019-05-17T01:02:15.364Z,81.21
2019-05-17T01:02:20.365Z,81.21
2019-05-17T01:02:25.369Z,77.27
2019-05-17T01:02:30.368Z,77.27
2019-05-17T01:02:35.367Z,78.72
2019-05-17T01:02:40.369Z,78.72
2019-05-17T01:02:45.370Z,75.05
2019-05-17T01:02:50.371Z,75.05
2019-05-17T01:02:55.371Z,71.75
2019-05-17T01:03:00.373Z,71.75
2019-05-17T01:03:05.480Z,73.79
2019-05-17T01:03:10.374Z,73.79
2019-05-17T01:03:15.375Z,75.60
2019-05-17T01:03:20.378Z,75.60
2019-05-17T01:03:25.377Z,72.30
2019-05-17T01:03:30.377Z,72.30
2019-05-17T01:03:35.379Z,69.34
2019-05-17T01:03:40.380Z,69.34
2019-05-17T01:03:45.381Z,66.69
2019-05-17T01:03:50.382Z,66.69
2019-05-17T01:03:55.382Z,69.22
2019-05-17T01:04:00.384Z,69.22
2019-05-17T01:04:05.384Z,66.60
2019-05-17T01:04:10.391Z,66.60
2019-05-17T01:04:15.387Z,64.26
2019-05-17T01:04:20.392Z,64.26
2019-05-17T01:04:25.388Z,67.02
2019-05-17T01:04:30.391Z,67.02